createdAt,value
2023-08-26T00:00:38.091Z,86.53
2023-08-26T00:03:05.891Z,86.15
2023-08-26T00:05:32.513Z,85.86
2023-08-26T00:07:59.199Z,87.28
2023-08-26T00:10:26.119Z,86.30
2023-08-26T00:12:53.038Z,85.61
2023-08-26T00:15:19.902Z,85.54
2023-08-26T00:17:46.490Z,87.49
2023-08-26T00:20:13.181Z,85.76
2023-08-26T00:22:40.003Z,85.89
2023-08-26T00:25:07.267Z,85.76
2023-08-26T00:27:33.897Z,86.69
2023-08-26T00:30:00.422Z,86.94
2023-08-26T00:32:27.153Z,87.02
2023-08-26T00:34:53.715Z,87.79
2023-08-26T00:37:20.316Z,86.78
2023-08-26T00:39:46.834Z,87.04
2023-08-26T00:42:13.419Z,87.02
2023-08-26T00:44:39.969Z,89.16
2023-08-26T00:47:06.703Z,90.51
2023-08-26T00:49:33.482Z,90.54
2023-08-26T00:52:00.371Z,88.04
2023-08-26T00:54:28.883Z,88.03
2023-08-26T00:56:56.037Z,87.97
2023-08-26T00:59:22.636Z,87.68
2023-08-26T01:01:49.420Z,87.60
2023-08-26T01:04:17.516Z,88.08
2023-08-26T01:06:46.822Z,87.64
2023-08-26T01:09:13.654Z,88.56
2023-08-26T01:11:51.257Z,88.17
2023-08-26T01:14:33.146Z,87.73
2023-08-26T01:17:01.027Z,87.99
2023-08-26T01:19:41.480Z,87.75
2023-08-26T01:22:09.562Z,88.13
2023-08-26T01:24:37.989Z,88.17
2023-08-26T01:27:04.815Z,87.37
2023-08-26T01:29:31.412Z,87.82
2023-08-26T01:32:18.315Z,88.78
2023-08-26T01:34:50.705Z,87.70
2023-08-26T01:37:19.937Z,87.33
2023-08-26T01:39:48.853Z,89.35
2023-08-26T01:42:17.590Z,88.00
2023-08-26T01:44:47.861Z,88.63
2023-08-26T01:47:14.426Z,87.68
2023-08-26T01:49:41.048Z,87.84
2023-08-26T01:52:07.712Z,86.87
2023-08-26T01:54:34.429Z,87.63
2023-08-26T01:57:00.975Z,88.74
2023-08-26T01:59:27.509Z,87.59
2023-08-26T02:01:54.083Z,88.09
2023-08-26T02:04:21.203Z,88.75
2023-08-26T02:06:47.751Z,89.23
2023-08-26T02:09:14.265Z,88.29
2023-08-26T02:11:40.833Z,88.80
2023-08-26T02:14:07.408Z,89.14
2023-08-26T02:16:33.964Z,89.97
2023-08-26T02:19:00.517Z,90.44
2023-08-26T02:21:27.098Z,89.95
2023-08-26T02:23:53.682Z,90.18
2023-08-26T02:26:20.208Z,91.72
2023-08-26T02:28:46.761Z,90.19
2023-08-26T02:31:13.401Z,89.78
2023-08-26T02:33:40.059Z,89.58
2023-08-26T02:36:07.429Z,90.54
2023-08-26T02:38:33.954Z,89.17
2023-08-26T02:41:01.189Z,89.49
2023-08-26T02:43:27.928Z,90.01
2023-08-26T02:45:55.634Z,90.40
2023-08-26T02:48:26.912Z,90.64
2023-08-26T02:50:58.060Z,91.25
2023-08-26T02:53:29.023Z,90.65
2023-08-26T02:55:56.670Z,90.98
2023-08-26T02:58:23.704Z,90.36
2023-08-26T03:00:50.426Z,90.39
2023-08-26T03:03:17.073Z,93.21
2023-08-26T03:05:47.242Z,93.87
2023-08-26T03:08:14.033Z,92.07
2023-08-26T03:10:40.709Z,90.28
2023-08-26T03:13:11.301Z,90.71
2023-08-26T03:15:37.949Z,94.53
2023-08-26T03:18:04.962Z,92.19
2023-08-26T03:20:32.783Z,91.05
2023-08-26T03:22:59.510Z,90.81
2023-08-26T03:25:26.216Z,90.06
2023-08-26T03:27:52.778Z,90.48
2023-08-26T03:30:19.493Z,89.70
2023-08-26T03:32:46.113Z,89.74
2023-08-26T03:35:12.815Z,89.41
2023-08-26T03:37:39.374Z,89.98
2023-08-26T03:40:09.840Z,89.90
2023-08-26T03:42:36.615Z,89.56
2023-08-26T03:45:05.555Z,89.30
2023-08-26T03:47:33.544Z,90.38
2023-08-26T03:50:01.132Z,90.39
2023-08-26T03:52:27.679Z,90.95
2023-08-26T03:54:54.384Z,91.53
2023-08-26T03:57:23.522Z,91.75
2023-08-26T03:59:50.091Z,91.97
2023-08-26T04:02:16.805Z,92.04
2023-08-26T04:04:43.521Z,91.62
2023-08-26T04:07:10.813Z,91.32
2023-08-26T04:09:37.416Z,91.30
2023-08-26T04:12:04.329Z,91.52
2023-08-26T04:14:30.898Z,92.01
2023-08-26T04:16:57.530Z,91.59
2023-08-26T04:19:24.763Z,91.31
2023-08-26T04:21:51.256Z,90.93
2023-08-26T04:24:17.714Z,91.15
2023-08-26T04:26:47.015Z,91.10
2023-08-26T04:29:13.623Z,91.20
2023-08-26T04:31:40.210Z,91.35
2023-08-26T04:34:06.753Z,91.21
2023-08-26T04:36:33.292Z,90.53
2023-08-26T04:38:59.825Z,90.62
2023-08-26T04:41:26.356Z,90.00
2023-08-26T04:43:54.287Z,89.62
2023-08-26T04:46:24.713Z,89.04
2023-08-26T04:48:51.652Z,88.21
2023-08-26T04:51:18.144Z,87.80
2023-08-26T04:53:47.780Z,87.34
2023-08-26T04:56:14.316Z,86.74
2023-08-26T04:58:40.916Z,86.21
2023-08-26T05:01:07.669Z,85.57
2023-08-26T05:03:34.389Z,85.00
2023-08-26T05:06:01.048Z,84.43
2023-08-26T05:08:27.599Z,84.25
2023-08-26T05:10:54.154Z,83.89
2023-08-26T05:13:20.877Z,83.90
2023-08-26T05:15:47.993Z,83.88
2023-08-26T05:18:16.566Z,83.78
2023-08-26T05:20:46.483Z,83.63
2023-08-26T05:23:13.686Z,84.03
2023-08-26T05:25:40.709Z,84.11
2023-08-26T05:28:07.478Z,83.77
2023-08-26T05:30:34.864Z,83.44
2023-08-26T05:33:02.621Z,83.07
2023-08-26T05:35:29.378Z,82.50
2023-08-26T05:37:56.080Z,81.60
2023-08-26T05:40:27.898Z,80.23
2023-08-26T05:42:58.372Z,79.40
2023-08-26T05:45:26.014Z,78.82
2023-08-26T05:47:53.574Z,78.11
2023-08-26T05:50:20.205Z,78.02
2023-08-26T05:52:46.932Z,77.24
2023-08-26T05:55:13.583Z,76.60
2023-08-26T05:57:42.387Z,76.20
2023-08-26T06:00:09.830Z,76.44
2023-08-26T06:02:36.445Z,76.22
2023-08-26T06:05:03.999Z,76.59
2023-08-26T06:07:30.551Z,76.02
2023-08-26T06:09:57.061Z,75.30
2023-08-26T06:12:23.720Z,74.46
2023-08-26T06:14:50.254Z,74.13
2023-08-26T06:17:16.732Z,74.06
2023-08-26T06:19:43.816Z,73.86
2023-08-26T06:22:10.375Z,73.19
2023-08-26T06:24:36.841Z,71.61
2023-08-26T06:27:03.941Z,69.56
2023-08-26T06:29:30.529Z,68.10
2023-08-26T06:31:57.034Z,68.92
2023-08-26T06:34:23.541Z,68.71
2023-08-26T06:36:50.126Z,69.18
2023-08-26T06:39:16.676Z,68.91
2023-08-26T06:44:23.728Z,68.78
2023-08-26T06:46:50.202Z,68.84
2023-08-26T06:49:16.749Z,69.61
2023-08-26T06:51:43.342Z,70.06
2023-08-26T06:54:09.777Z,70.25
2023-08-26T06:56:36.965Z,70.30
2023-08-26T06:59:04.661Z,70.53
2023-08-26T07:01:32.465Z,70.53
2023-08-26T07:04:05.744Z,70.31
2023-08-26T07:06:33.061Z,70.70
2023-08-26T07:08:59.857Z,70.30
2023-08-26T07:11:26.995Z,70.54
2023-08-26T07:13:53.553Z,70.04
2023-08-26T07:16:20.954Z,69.82
2023-08-26T07:18:47.667Z,69.40
2023-08-26T07:21:16.087Z,69.05
2023-08-26T07:23:42.616Z,68.76
2023-08-26T07:26:09.263Z,68.36
2023-08-26T07:28:35.927Z,68.08
2023-08-26T07:31:04.504Z,67.94
2023-08-26T07:33:31.788Z,67.83
2023-08-26T07:36:07.469Z,67.06
2023-08-26T07:38:38.249Z,66.71
2023-08-26T07:41:05.126Z,66.61
2023-08-26T07:43:31.918Z,66.23
2023-08-26T07:50:57.263Z,65.43
2023-08-26T07:53:24.003Z,65.44
2023-08-26T07:55:50.479Z,65.19
2023-08-26T07:58:17.077Z,65.53
2023-08-26T08:00:43.745Z,66.22
2023-08-26T08:03:10.553Z,66.55
2023-08-26T08:05:37.197Z,66.20
2023-08-26T08:08:03.933Z,66.76
2023-08-26T08:10:30.507Z,66.63
2023-08-26T08:12:57.360Z,66.83
2023-08-26T08:15:24.143Z,66.87
2023-08-26T08:17:50.851Z,66.51
2023-08-26T08:20:17.618Z,66.06
2023-08-26T08:22:44.588Z,65.45
2023-08-26T08:25:12.008Z,65.56
2023-08-26T08:27:40.308Z,65.41
2023-08-26T08:30:07.689Z,64.96
2023-08-26T08:32:34.554Z,65.55
2023-08-26T08:35:03.597Z,65.39
2023-08-26T08:37:30.287Z,65.57
2023-08-26T08:39:57.065Z,64.89
2023-08-26T08:42:23.722Z,65.53
2023-08-26T08:45:27.735Z,65.28
2023-08-26T08:47:55.271Z,65.47
2023-08-26T08:50:22.494Z,66.10
2023-08-26T08:52:52.469Z,66.38
2023-08-26T08:55:19.345Z,66.61
2023-08-26T08:57:47.646Z,66.69
2023-08-26T09:00:14.917Z,66.98
2023-08-26T09:02:44.194Z,67.21
2023-08-26T09:05:10.881Z,67.82
2023-08-26T09:07:39.461Z,67.71
2023-08-26T09:10:08.785Z,67.41
2023-08-26T09:12:35.430Z,67.72
2023-08-26T09:15:02.432Z,67.81
2023-08-26T09:17:29.457Z,67.85
2023-08-26T09:19:59.408Z,68.26
2023-08-26T09:22:27.623Z,68.55
2023-08-26T09:24:56.219Z,69.05
2023-08-26T09:27:23.136Z,69.03
2023-08-26T09:29:50.168Z,69.37
2023-08-26T09:32:16.828Z,69.01
2023-08-26T09:34:43.349Z,68.99
2023-08-26T09:37:09.961Z,69.00
2023-08-26T09:39:47.335Z,68.31
2023-08-26T09:42:14.272Z,67.47
2023-08-26T09:44:41.698Z,67.48
2023-08-26T09:47:13.035Z,67.26
2023-08-26T09:49:39.803Z,67.06
2023-08-26T09:52:06.283Z,67.14
2023-08-26T09:54:32.867Z,66.63
2023-08-26T09:56:59.551Z,65.89
2023-08-26T09:59:26.093Z,64.55
2023-08-26T10:01:52.968Z,65.00
2023-08-26T10:04:27.313Z,64.27
2023-08-26T10:06:59.401Z,63.98
2023-08-26T10:09:51.242Z,64.81
2023-08-26T10:12:45.078Z,65.13
2023-08-26T10:15:15.176Z,65.47
2023-08-26T10:17:45.844Z,65.31
2023-08-26T10:20:13.292Z,65.42
2023-08-26T10:22:40.168Z,64.64
2023-08-26T10:25:09.310Z,63.48
2023-08-26T10:27:37.453Z,62.99
2023-08-26T10:33:07.676Z,62.89
2023-08-26T10:35:34.346Z,62.75
2023-08-26T10:38:15.952Z,61.30
2023-08-26T10:40:42.882Z,61.33
2023-08-26T10:43:12.873Z,60.61
2023-08-26T10:45:58.078Z,60.28
2023-08-26T10:48:26.308Z,58.45
2023-08-26T10:51:00.917Z,58.97
2023-08-26T10:53:28.611Z,58.63
2023-08-26T10:56:14.608Z,57.40
2023-08-26T10:58:47.090Z,57.73
2023-08-26T11:01:14.457Z,57.67
2023-08-26T11:03:41.268Z,57.69
2023-08-26T11:06:11.324Z,57.21
2023-08-26T11:08:41.443Z,57.20
2023-08-26T11:11:13.971Z,56.70
2023-08-26T11:13:42.428Z,56.80
2023-08-26T11:16:10.232Z,55.46
2023-08-26T11:18:37.397Z,55.62
2023-08-26T11:21:06.122Z,55.29
2023-08-26T11:23:36.019Z,55.76
2023-08-26T11:26:07.173Z,54.92
2023-08-26T11:28:33.870Z,55.49
2023-08-26T11:31:01.165Z,54.98
2023-08-26T11:33:30.245Z,54.66
2023-08-26T11:36:08.269Z,55.42
2023-08-26T11:38:36.249Z,55.18
2023-08-26T11:41:09.378Z,56.22
2023-08-26T11:43:36.834Z,56.41
2023-08-26T11:46:06.001Z,56.62
2023-08-26T11:48:41.752Z,56.64
2023-08-26T11:51:08.342Z,56.68
2023-08-26T11:53:38.109Z,56.67
2023-08-26T11:56:05.569Z,56.03
2023-08-26T11:58:33.296Z,56.03
2023-08-26T12:00:59.964Z,55.18
2023-08-26T12:03:31.179Z,55.14
2023-08-26T12:05:57.840Z,54.93
2023-08-26T12:08:24.505Z,55.16
2023-08-26T12:10:52.405Z,54.85
2023-08-26T12:13:19.648Z,54.86
2023-08-26T12:15:46.971Z,54.53
2023-08-26T12:18:14.311Z,54.46
2023-08-26T12:20:47.924Z,54.66
2023-08-26T12:23:20.553Z,53.39
2023-08-26T12:25:47.164Z,53.63
2023-08-26T12:28:23.028Z,52.55
2023-08-26T12:30:49.628Z,53.84
2023-08-26T12:33:25.341Z,53.95
2023-08-26T12:35:53.629Z,54.47
2023-08-26T12:38:20.644Z,53.99
2023-08-26T12:40:50.620Z,53.69
2023-08-26T12:43:19.764Z,52.68
2023-08-26T12:45:47.136Z,52.08
2023-08-26T12:48:17.033Z,51.01
2023-08-26T12:50:49.419Z,51.28
2023-08-26T12:53:16.065Z,51.30
2023-08-26T12:55:42.845Z,50.58
2023-08-26T12:58:09.344Z,50.99
2023-08-26T13:00:35.901Z,51.06
2023-08-26T13:03:02.476Z,51.07
2023-08-26T13:05:29.059Z,51.04
2023-08-26T13:07:55.936Z,51.32
2023-08-26T13:10:22.670Z,51.48
2023-08-26T13:12:49.175Z,50.86
2023-08-26T13:15:15.825Z,51.32
2023-08-26T13:17:42.398Z,51.29
2023-08-26T13:20:11.041Z,50.20
2023-08-26T13:22:37.739Z,50.21
2023-08-26T13:25:05.053Z,49.52
2023-08-26T13:27:31.788Z,49.61
2023-08-26T13:29:58.262Z,49.79
2023-08-26T13:32:24.862Z,50.28
2023-08-26T13:34:51.415Z,50.12
2023-08-26T13:37:18.019Z,50.63
2023-08-26T13:39:44.857Z,51.15
2023-08-26T13:42:11.579Z,51.47
2023-08-26T13:44:38.187Z,51.44
2023-08-26T13:47:05.143Z,51.87
2023-08-26T13:49:32.561Z,52.93
2023-08-26T13:51:59.240Z,53.85
2023-08-26T13:54:25.752Z,54.24
2023-08-26T13:56:52.282Z,54.98
2023-08-26T13:59:19.122Z,56.95
2023-08-26T14:01:45.684Z,67.70
2023-08-26T14:04:12.216Z,76.49
2023-08-26T14:06:39.300Z,81.61
2023-08-26T14:09:05.901Z,87.59
2023-08-26T14:11:32.480Z,89.20
2023-08-26T14:13:59.055Z,92.09
2023-08-26T14:16:25.776Z,94.72
2023-08-26T14:18:52.323Z,88.95
2023-08-26T14:21:18.929Z,87.02
2023-08-26T14:23:47.565Z,86.35
2023-08-26T14:26:15.343Z,83.48
2023-08-26T14:28:41.815Z,82.80
2023-08-26T14:31:08.526Z,80.72
2023-08-26T14:33:36.616Z,79.57
2023-08-26T14:36:04.769Z,79.71
2023-08-26T14:38:31.710Z,80.43
2023-08-26T14:40:58.339Z,81.37
2023-08-26T14:43:24.891Z,80.96
2023-08-26T14:48:34.025Z,81.67
2023-08-26T14:51:01.048Z,81.70
2023-08-26T14:53:27.581Z,83.61
2023-08-26T14:56:03.622Z,84.36
2023-08-26T14:58:31.066Z,85.12
2023-08-26T15:00:57.661Z,84.40
2023-08-26T15:03:24.456Z,83.58
2023-08-26T15:05:58.129Z,83.47
2023-08-26T15:08:25.511Z,84.46
2023-08-26T15:10:52.813Z,84.02
2023-08-26T15:13:21.996Z,84.47
2023-08-26T15:15:48.893Z,85.65
2023-08-26T15:18:17.977Z,85.23
2023-08-26T15:20:46.140Z,85.16
2023-08-26T15:23:13.709Z,84.73
2023-08-26T15:25:41.179Z,84.63
2023-08-26T15:28:08.623Z,84.26
2023-08-26T15:30:35.248Z,84.46
2023-08-26T15:33:02.187Z,84.58
2023-08-26T15:35:29.668Z,84.84
2023-08-26T15:37:57.303Z,84.62
2023-08-26T15:40:24.474Z,84.23
2023-08-26T15:42:55.224Z,85.06
2023-08-26T15:45:22.104Z,85.16
2023-08-26T15:47:48.674Z,85.58
2023-08-26T15:50:15.422Z,86.00
2023-08-26T15:52:41.941Z,85.16
2023-08-26T15:55:08.548Z,86.27
2023-08-26T15:57:35.068Z,85.75
2023-08-26T16:00:01.554Z,86.99
2023-08-26T16:02:28.078Z,86.80
2023-08-26T16:04:54.671Z,86.89
2023-08-26T16:07:21.176Z,86.80
2023-08-26T16:09:47.667Z,87.05
2023-08-26T16:12:17.568Z,87.39
2023-08-26T16:14:44.822Z,87.54
2023-08-26T16:17:11.755Z,87.87
2023-08-26T16:19:38.303Z,87.29
2023-08-26T16:22:04.867Z,87.82
2023-08-26T16:24:31.438Z,88.15
2023-08-26T16:26:57.975Z,88.25
2023-08-26T16:29:24.498Z,88.45
2023-08-26T16:31:51.062Z,88.78
2023-08-26T16:34:17.924Z,89.46
2023-08-26T16:36:44.426Z,89.13
2023-08-26T16:39:13.188Z,89.16
2023-08-26T16:41:40.764Z,89.76
2023-08-26T16:44:08.819Z,89.73
2023-08-26T16:46:35.501Z,90.30
2023-08-26T16:49:02.124Z,90.06
2023-08-26T16:51:28.748Z,90.19
2023-08-26T16:53:55.382Z,90.32
2023-08-26T16:56:22.186Z,90.76
2023-08-26T16:58:48.674Z,90.37
2023-08-26T17:01:15.296Z,90.51
2023-08-26T17:03:41.762Z,90.27
2023-08-26T17:06:09.660Z,90.30
2023-08-26T17:08:36.512Z,91.10
2023-08-26T17:11:04.308Z,90.57
2023-08-26T17:13:31.438Z,91.24
2023-08-26T17:15:58.776Z,91.24
2023-08-26T17:18:25.392Z,91.53
2023-08-26T17:20:52.125Z,91.32
2023-08-26T17:23:18.671Z,91.64
2023-08-26T17:25:45.264Z,92.08
2023-08-26T17:28:11.815Z,91.42
2023-08-26T17:30:38.707Z,91.54
2023-08-26T17:33:05.992Z,91.73
2023-08-26T17:35:35.837Z,92.16
2023-08-26T17:38:04.023Z,92.75
2023-08-26T17:40:30.875Z,92.85
2023-08-26T17:42:57.667Z,93.16
2023-08-26T17:45:27.628Z,92.98
2023-08-26T17:47:54.205Z,93.84
2023-08-26T17:50:20.779Z,92.98
2023-08-26T17:52:47.301Z,93.87
2023-08-26T17:55:13.917Z,94.85
2023-08-26T17:57:40.553Z,94.57
2023-08-26T18:00:07.872Z,94.57
2023-08-26T18:02:34.393Z,95.16
2023-08-26T18:05:00.995Z,96.12
2023-08-26T18:07:27.590Z,96.14
2023-08-26T18:09:54.174Z,95.69
2023-08-26T18:12:20.763Z,95.66
2023-08-26T18:14:47.298Z,95.48
2023-08-26T18:17:14.074Z,95.84
2023-08-26T18:19:40.663Z,95.54
2023-08-26T18:22:07.247Z,95.80
2023-08-26T18:24:34.140Z,94.85
2023-08-26T18:27:00.762Z,95.17
2023-08-26T18:29:37.897Z,95.65
2023-08-26T18:32:04.862Z,95.72
2023-08-26T18:34:31.446Z,95.45
2023-08-26T18:36:58.089Z,95.67
2023-08-26T18:39:24.681Z,95.81
2023-08-26T18:41:51.255Z,96.00
2023-08-26T18:44:17.813Z,96.75
2023-08-26T18:46:45.994Z,97.12
2023-08-26T18:49:12.655Z,96.97
2023-08-26T18:51:39.253Z,96.78
2023-08-26T18:54:05.829Z,96.88
2023-08-26T18:56:32.387Z,97.66
2023-08-26T18:58:58.894Z,98.92
2023-08-26T19:01:25.428Z,98.89
2023-08-26T19:03:52.803Z,98.15
2023-08-26T19:06:19.367Z,97.37
2023-08-26T19:08:45.975Z,96.95
2023-08-26T19:11:12.591Z,97.39
2023-08-26T19:13:39.071Z,97.07
2023-08-26T19:16:05.644Z,97.63
2023-08-26T19:18:32.134Z,97.15
2023-08-26T19:20:58.826Z,97.76
2023-08-26T19:23:25.504Z,98.64
2023-08-26T19:25:52.178Z,97.97
2023-08-26T19:28:18.722Z,97.31
2023-08-26T19:30:46.360Z,97.15
2023-08-26T19:33:13.001Z,97.06
2023-08-26T19:35:40.868Z,97.10
2023-08-26T19:38:07.520Z,97.15
2023-08-26T19:40:34.060Z,97.08
2023-08-26T19:43:01.311Z,97.37
2023-08-26T19:45:28.120Z,97.23
2023-08-26T19:47:54.919Z,96.70
2023-08-26T19:50:21.528Z,96.76
2023-08-26T19:52:48.480Z,97.20
2023-08-26T19:55:15.456Z,97.66
2023-08-26T19:57:42.205Z,97.83
2023-08-26T20:00:09.688Z,97.62
2023-08-26T20:02:36.412Z,97.40
2023-08-26T20:05:03.115Z,97.63
2023-08-26T20:07:29.666Z,97.74
2023-08-26T20:09:56.905Z,98.17
2023-08-26T20:12:23.820Z,98.40
2023-08-26T20:14:50.947Z,98.75
2023-08-26T20:17:17.618Z,98.84
2023-08-26T20:19:44.335Z,99.26
2023-08-26T20:22:11.173Z,99.32
2023-08-26T20:24:38.625Z,99.92
2023-08-26T20:27:05.398Z,99.21
2023-08-26T20:29:32.748Z,99.33
2023-08-26T20:32:00.597Z,99.02
2023-08-26T20:34:27.152Z,98.69
2023-08-26T20:36:54.284Z,98.83
2023-08-26T20:39:20.885Z,99.40
2023-08-26T20:41:47.632Z,99.42
2023-08-26T20:44:14.418Z,99.88
2023-08-26T20:46:40.922Z,100.00
2023-08-26T20:49:07.585Z,100.00
2023-08-26T20:51:34.069Z,100.00
2023-08-26T20:54:00.772Z,99.88
2023-08-26T20:56:30.000Z,100.00
2023-08-26T20:58:57.416Z,99.99
2023-08-26T21:01:25.470Z,99.77
2023-08-26T21:03:52.079Z,99.41
2023-08-26T21:06:18.683Z,99.56
2023-08-26T21:08:45.170Z,99.78
2023-08-26T21:11:12.134Z,99.40
2023-08-26T21:13:39.722Z,99.89
2023-08-26T21:16:07.021Z,100.00
2023-08-26T21:18:33.690Z,99.33
2023-08-26T21:21:00.624Z,99.67
2023-08-26T21:23:27.267Z,99.73
2023-08-26T21:25:54.465Z,100.00
2023-08-26T21:28:26.292Z,99.88
2023-08-26T21:30:53.908Z,100.00
2023-08-26T21:33:21.673Z,100.00
2023-08-26T21:35:49.043Z,100.00
2023-08-26T21:38:16.282Z,100.00
2023-08-26T21:40:43.643Z,99.57
2023-08-26T21:43:12.452Z,99.42
2023-08-26T21:45:40.217Z,99.48
2023-08-26T21:48:09.115Z,100.00
2023-08-26T21:50:42.906Z,99.45
2023-08-26T21:53:09.524Z,99.02
2023-08-26T21:55:36.247Z,99.68
2023-08-26T21:58:05.137Z,99.79
2023-08-26T22:00:33.007Z,99.97
2023-08-26T22:03:00.158Z,100.00
2023-08-26T22:05:32.531Z,100.00
2023-08-26T22:08:00.425Z,100.00
2023-08-26T22:10:27.296Z,100.00
2023-08-26T22:12:56.615Z,100.00
2023-08-26T22:15:24.953Z,100.00
2023-08-26T22:17:52.339Z,99.79
2023-08-26T22:20:19.125Z,99.71
2023-08-26T22:22:46.387Z,99.91
2023-08-26T22:25:13.221Z,99.71
2023-08-26T22:27:41.346Z,99.58
2023-08-26T22:30:09.387Z,100.00
2023-08-26T22:32:37.298Z,99.85
2023-08-26T22:35:04.727Z,99.97
2023-08-26T22:37:34.601Z,100.00
2023-08-26T22:40:04.362Z,100.00
2023-08-26T22:42:35.095Z,100.00
2023-08-26T22:45:02.595Z,100.00
2023-08-26T22:47:29.582Z,100.00
2023-08-26T22:49:59.019Z,100.00
2023-08-26T22:52:25.732Z,100.00
2023-08-26T22:54:52.837Z,99.29
2023-08-26T22:57:19.445Z,98.02
2023-08-26T22:59:46.235Z,97.98
2023-08-26T23:02:13.140Z,97.91
2023-08-26T23:04:41.347Z,98.10
2023-08-26T23:07:08.714Z,97.74
2023-08-26T23:09:35.538Z,98.08
2023-08-26T23:12:02.399Z,97.62
2023-08-26T23:14:28.972Z,97.39
2023-08-26T23:16:55.765Z,96.66
2023-08-26T23:19:22.691Z,96.31
2023-08-26T23:21:53.306Z,96.35
2023-08-26T23:24:20.134Z,95.30
2023-08-26T23:26:46.793Z,95.01
2023-08-26T23:29:14.171Z,94.96
2023-08-26T23:31:40.757Z,94.61
2023-08-26T23:34:17.836Z,93.97
2023-08-26T23:36:46.754Z,94.57
2023-08-26T23:39:13.387Z,94.60
2023-08-26T23:41:40.136Z,94.86
2023-08-26T23:44:06.825Z,94.59
2023-08-26T23:46:33.308Z,94.70
2023-08-26T23:48:59.974Z,94.00
2023-08-26T23:51:26.751Z,93.10
2023-08-26T23:53:53.494Z,93.44
2023-08-26T23:56:20.378Z,93.86
2023-08-26T23:58:46.961Z,92.29
